sensor_id;sensor_type;location;lat;lon;timestamp;pressure;altitude;pressure_sealevel;temperature;humidity
64675;BME280;51090;51.512;11.332;2023-02-12T00:00:44;101270.16;;;9.24;100.00
64675;BME280;51090;51.512;11.332;2023-02-12T00:03:10;101274.88;;;9.21;100.00
64675;BME280;51090;51.512;11.332;2023-02-12T00:05:39;101261.59;;;9.11;100.00
64675;BME280;51090;51.512;11.332;2023-02-12T00:08:07;101282.81;;;9.21;100.00
64675;BME280;51090;51.512;11.332;2023-02-12T00:10:33;101284.38;;;9.23;100.00
64675;BME280;51090;51.512;11.332;2023-02-12T00:12:59;101275.06;;;9.29;100.00
64675;BME280;51090;51.512;11.332;2023-02-12T00:15:25;101283.72;;;9.31;100.00
64675;BME280;51090;51.512;11.332;2023-02-12T00:17:50;101284.44;;;9.33;100.00
64675;BME280;51090;51.512;11.332;2023-02-12T00:20:16;101276.06;;;9.37;100.00
64675;BME280;51090;51.512;11.332;2023-02-12T00:22:42;101276.22;;;9.36;100.00
64675;BME280;51090;51.512;11.332;2023-02-12T00:25:08;101284.16;;;9.36;100.00
64675;BME280;51090;51.512;11.332;2023-02-12T00:27:35;101289.50;;;9.25;100.00
64675;BME280;51090;51.512;11.332;2023-02-12T00:30:01;101282.25;;;9.17;100.00
64675;BME280;51090;51.512;11.332;2023-02-12T00:32:26;101291.84;;;9.18;100.00
64675;BME280;51090;51.512;11.332;2023-02-12T00:34:52;101288.50;;;9.16;100.00
64675;BME280;51090;51.512;11.332;2023-02-12T00:37:18;101289.34;;;9.16;100.00
64675;BME280;51090;51.512;11.332;2023-02-12T00:39:44;101287.41;;;9.19;100.00
64675;BME280;51090;51.512;11.332;2023-02-12T00:42:10;101288.38;;;9.18;100.00
64675;BME280;51090;51.512;11.332;2023-02-12T00:44:35;101276.91;;;9.07;100.00
64675;BME280;51090;51.512;11.332;2023-02-12T00:47:02;101281.81;;;9.12;100.00
64675;BME280;51090;51.512;11.332;2023-02-12T00:49:30;101281.94;;;9.10;100.00
64675;BME280;51090;51.512;11.332;2023-02-12T00:52:01;101288.50;;;9.16;100.00
64675;BME280;51090;51.512;11.332;2023-02-12T00:54:28;101299.28;;;9.24;100.00
64675;BME280;51090;51.512;11.332;2023-02-12T00:56:55;101296.44;;;9.16;100.00
64675;BME280;51090;51.512;11.332;2023-02-12T00:59:22;101296.81;;;9.11;100.00
64675;BME280;51090;51.512;11.332;2023-02-12T01:01:48;101295.88;;;9.12;100.00
64675;BME280;51090;51.512;11.332;2023-02-12T01:04:14;101292.97;;;9.15;100.00
64675;BME280;51090;51.512;11.332;2023-02-12T01:06:40;101299.63;;;9.10;100.00
64675;BME280;51090;51.512;11.332;2023-02-12T01:09:06;101301.34;;;9.21;100.00
64675;BME280;51090;51.512;11.332;2023-02-12T01:11:32;101305.66;;;9.22;100.00
64675;BME280;51090;51.512;11.332;2023-02-12T01:13:57;101272.09;;;9.01;100.00
64675;BME280;51090;51.512;11.332;2023-02-12T01:16:24;101308.19;;;9.23;100.00
64675;BME280;51090;51.512;11.332;2023-02-12T01:18:52;101309.75;;;9.26;100.00
64675;BME280;51090;51.512;11.332;2023-02-12T01:21:30;101313.22;;;9.26;100.00
64675;BME280;51090;51.512;11.332;2023-02-12T01:23:57;101311.66;;;9.24;100.00
64675;BME280;51090;51.512;11.332;2023-02-12T01:26:24;101306.19;;;9.15;100.00
64675;BME280;51090;51.512;11.332;2023-02-12T01:28:57;101319.72;;;9.22;100.00
64675;BME280;51090;51.512;11.332;2023-02-12T01:31:27;101317.50;;;9.18;100.00
64675;BME280;51090;51.512;11.332;2023-02-12T01:33:55;101310.91;;;9.12;100.00
64675;BME280;51090;51.512;11.332;2023-02-12T01:36:21;101302.91;;;9.02;100.00
64675;BME280;51090;51.512;11.332;2023-02-12T01:38:48;101301.47;;;8.98;100.00
64675;BME280;51090;51.512;11.332;2023-02-12T01:41:30;101300.25;;;9.02;100.00
64675;BME280;51090;51.512;11.332;2023-02-12T01:44:18;101300.91;;;8.94;100.00
64675;BME280;51090;51.512;11.332;2023-02-12T01:46:48;101290.38;;;8.83;100.00
64675;BME280;51090;51.512;11.332;2023-02-12T01:49:32;101298.38;;;8.93;100.00
64675;BME280;51090;51.512;11.332;2023-02-12T01:52:17;101298.84;;;8.98;100.00
64675;BME280;51090;51.512;11.332;2023-02-12T01:54:46;101304.00;;;9.00;100.00
64675;BME280;51090;51.512;11.332;2023-02-12T01:57:13;101288.78;;;8.92;100.00
64675;BME280;51090;51.512;11.332;2023-02-12T01:59:42;101297.72;;;9.01;100.00
64675;BME280;51090;51.512;11.332;2023-02-12T02:02:09;101295.09;;;9.01;100.00
64675;BME280;51090;51.512;11.332;2023-02-12T02:04:48;101297.09;;;9.08;100.00
64675;BME280;51090;51.512;11.332;2023-02-12T02:07:15;101301.44;;;9.09;100.00
64675;BME280;51090;51.512;11.332;2023-02-12T02:09:41;101289.41;;;9.05;100.00
64675;BME280;51090;51.512;11.332;2023-02-12T02:12:07;101300.97;;;9.04;100.00
64675;BME280;51090;51.512;11.332;2023-02-12T02:14:56;101287.88;;;9.03;100.00
64675;BME280;51090;51.512;11.332;2023-02-12T02:17:45;101295.41;;;9.07;100.00
64675;BME280;51090;51.512;11.332;2023-02-12T02:20:33;101296.25;;;9.08;100.00
64675;BME280;51090;51.512;11.332;2023-02-12T02:29:13;101284.69;;;9.09;100.00
64675;BME280;51090;51.512;11.332;2023-02-12T02:35:23;101275.91;;;9.08;100.00
64675;BME280;51090;51.512;11.332;2023-02-12T02:38:05;101285.09;;;9.04;100.00
64675;BME280;51090;51.512;11.332;2023-02-12T02:40:53;101273.47;;;8.96;100.00
64675;BME280;51090;51.512;11.332;2023-02-12T02:43:31;101288.69;;;9.03;100.00
64675;BME280;51090;51.512;11.332;2023-02-12T02:46:13;101276.72;;;8.99;100.00
64675;BME280;51090;51.512;11.332;2023-02-12T02:48:49;101283.56;;;9.02;100.00
64675;BME280;51090;51.512;11.332;2023-02-12T02:51:26;101278.66;;;8.97;100.00
64675;BME280;51090;51.512;11.332;2023-02-12T02:54:14;101289.69;;;9.02;100.00
64675;BME280;51090;51.512;11.332;2023-02-12T02:56:45;101291.50;;;9.02;100.00
64675;BME280;51090;51.512;11.332;2023-02-12T02:59:19;101285.97;;;8.93;100.00
64675;BME280;51090;51.512;11.332;2023-02-12T03:05:09;101300.31;;;8.91;100.00
64675;BME280;51090;51.512;11.332;2023-02-12T03:08:02;101299.22;;;8.93;100.00
64675;BME280;51090;51.512;11.332;2023-02-12T03:10:35;101290.38;;;8.83;100.00
64675;BME280;51090;51.512;11.332;2023-02-12T03:13:27;101296.75;;;8.81;100.00
64675;BME280;51090;51.512;11.332;2023-02-12T03:16:07;101287.97;;;8.80;100.00
64675;BME280;51090;51.512;11.332;2023-02-12T03:18:51;101293.28;;;8.80;100.00
64675;BME280;51090;51.512;11.332;2023-02-12T03:21:31;101283.06;;;8.76;100.00
64675;BME280;51090;51.512;11.332;2023-02-12T03:24:11;101299.16;;;8.84;100.00
64675;BME280;51090;51.512;11.332;2023-02-12T03:29:34;101290.88;;;8.77;100.00
64675;BME280;51090;51.512;11.332;2023-02-12T03:35:04;101304.75;;;8.90;100.00
64675;BME280;51090;51.512;11.332;2023-02-12T03:37:38;101301.56;;;8.87;100.00
64675;BME280;51090;51.512;11.332;2023-02-12T03:40:16;101294.34;;;8.89;100.00
64675;BME280;51090;51.512;11.332;2023-02-12T03:42:58;101300.56;;;8.88;100.00
64675;BME280;51090;51.512;11.332;2023-02-12T03:51:03;101307.69;;;8.87;100.00
64675;BME280;51090;51.512;11.332;2023-02-12T03:53:30;101306.94;;;8.85;100.00
64675;BME280;51090;51.512;11.332;2023-02-12T03:56:11;101306.47;;;8.91;100.00
64675;BME280;51090;51.512;11.332;2023-02-12T03:58:38;101318.19;;;8.99;100.00
64675;BME280;51090;51.512;11.332;2023-02-12T04:01:06;101293.72;;;8.85;100.00
64675;BME280;51090;51.512;11.332;2023-02-12T04:03:33;101310.44;;;8.86;100.00
64675;BME280;51090;51.512;11.332;2023-02-12T04:05:59;101297.00;;;8.78;100.00
64675;BME280;51090;51.512;11.332;2023-02-12T04:08:25;101319.44;;;8.94;100.00
64675;BME280;51090;51.512;11.332;2023-02-12T04:11:05;101339.03;;;8.92;100.00
64675;BME280;51090;51.512;11.332;2023-02-12T04:13:43;101312.06;;;8.77;100.00
64675;BME280;51090;51.512;11.332;2023-02-12T04:16:27;101341.81;;;8.90;100.00
64675;BME280;51090;51.512;11.332;2023-02-12T04:18:54;101331.84;;;8.83;100.00
64675;BME280;51090;51.512;11.332;2023-02-12T04:30:32;101347.72;;;8.83;100.00
64675;BME280;51090;51.512;11.332;2023-02-12T04:32:54;101347.63;;;8.84;100.00
64675;BME280;51090;51.512;11.332;2023-02-12T04:35:34;101345.81;;;8.85;100.00
64675;BME280;51090;51.512;11.332;2023-02-12T04:38:18;101347.47;;;8.86;100.00
64675;BME280;51090;51.512;11.332;2023-02-12T04:40:47;101349.91;;;8.78;100.00
64675;BME280;51090;51.512;11.332;2023-02-12T04:43:13;101353.53;;;8.77;100.00
64675;BME280;51090;51.512;11.332;2023-02-12T04:45:39;101353.66;;;8.75;100.00
64675;BME280;51090;51.512;11.332;2023-02-12T04:48:05;101348.50;;;8.74;100.00
64675;BME280;51090;51.512;11.332;2023-02-12T04:50:42;101365.78;;;8.78;100.00
64675;BME280;51090;51.512;11.332;2023-02-12T04:53:08;101357.38;;;8.72;100.00
64675;BME280;51090;51.512;11.332;2023-02-12T04:55:34;101363.50;;;8.73;100.00
64675;BME280;51090;51.512;11.332;2023-02-12T04:58:00;101366.78;;;8.77;100.00
64675;BME280;51090;51.512;11.332;2023-02-12T05:00:26;101365.94;;;8.76;100.00
64675;BME280;51090;51.512;11.332;2023-02-12T05:02:51;101367.72;;;8.76;100.00
64675;BME280;51090;51.512;11.332;2023-02-12T05:05:17;101371.91;;;8.78;100.00
64675;BME280;51090;51.512;11.332;2023-02-12T05:07:43;101364.38;;;8.74;100.00
64675;BME280;51090;51.512;11.332;2023-02-12T05:10:09;101377.94;;;8.80;100.00
64675;BME280;51090;51.512;11.332;2023-02-12T05:12:35;101373.72;;;8.78;100.00
64675;BME280;51090;51.512;11.332;2023-02-12T05:15:00;101376.84;;;8.83;100.00
64675;BME280;51090;51.512;11.332;2023-02-12T05:17:26;101379.22;;;8.86;100.00
64675;BME280;51090;51.512;11.332;2023-02-12T05:19:52;101376.72;;;8.84;100.00
64675;BME280;51090;51.512;11.332;2023-02-12T05:22:17;101365.94;;;8.76;100.00
64675;BME280;51090;51.512;11.332;2023-02-12T05:24:43;101373.00;;;8.76;100.00
64675;BME280;51090;51.512;11.332;2023-02-12T05:27:09;101379.19;;;8.65;100.00
64675;BME280;51090;51.512;11.332;2023-02-12T05:29:36;101384.81;;;8.71;100.00
64675;BME280;51090;51.512;11.332;2023-02-12T05:32:02;101381.19;;;8.72;100.00
64675;BME280;51090;51.512;11.332;2023-02-12T05:34:28;101376.38;;;8.78;100.00
64675;BME280;51090;51.512;11.332;2023-02-12T05:36:54;101380.94;;;8.76;100.00
64675;BME280;51090;51.512;11.332;2023-02-12T05:39:19;101383.59;;;8.76;100.00
64675;BME280;51090;51.512;11.332;2023-02-12T05:41:45;101379.28;;;8.75;100.00
64675;BME280;51090;51.512;11.332;2023-02-12T05:44:11;101392.97;;;8.80;100.00
64675;BME280;51090;51.512;11.332;2023-02-12T05:46:37;101388.75;;;8.77;100.00
64675;BME280;51090;51.512;11.332;2023-02-12T05:49:03;101391.28;;;8.79;100.00
64675;BME280;51090;51.512;11.332;2023-02-12T05:51:30;101390.91;;;8.83;100.00
64675;BME280;51090;51.512;11.332;2023-02-12T05:54:00;101386.38;;;8.74;100.00
64675;BME280;51090;51.512;11.332;2023-02-12T05:56:35;101389.13;;;8.72;100.00
64675;BME280;51090;51.512;11.332;2023-02-12T05:59:10;101387.94;;;8.77;100.00
64675;BME280;51090;51.512;11.332;2023-02-12T06:01:42;101393.22;;;8.77;100.00
64675;BME280;51090;51.512;11.332;2023-02-12T06:04:17;101374.81;;;8.75;100.00
64675;BME280;51090;51.512;11.332;2023-02-12T06:06:44;101391.78;;;8.72;100.00
64675;BME280;51090;51.512;11.332;2023-02-12T06:09:11;101395.50;;;8.70;100.00
64675;BME280;51090;51.512;11.332;2023-02-12T06:11:38;101384.72;;;8.62;100.00
64675;BME280;51090;51.512;11.332;2023-02-12T06:14:05;101388.19;;;8.62;100.00
64675;BME280;51090;51.512;11.332;2023-02-12T06:16:32;101389.91;;;8.63;100.00
64675;BME280;51090;51.512;11.332;2023-02-12T06:19:01;101387.84;;;8.67;100.00
64675;BME280;51090;51.512;11.332;2023-02-12T06:21:28;101394.22;;;8.64;100.00
64675;BME280;51090;51.512;11.332;2023-02-12T06:23:54;101396.38;;;8.59;100.00
64675;BME280;51090;51.512;11.332;2023-02-12T06:26:21;101399.13;;;8.58;100.00
64675;BME280;51090;51.512;11.332;2023-02-12T06:28:48;101388.97;;;8.53;100.00
64675;BME280;51090;51.512;11.332;2023-02-12T06:33:49;101394.56;;;8.60;100.00
64675;BME280;51090;51.512;11.332;2023-02-12T06:36:15;101395.91;;;8.54;100.00
64675;BME280;51090;51.512;11.332;2023-02-12T06:38:41;101400.22;;;8.55;100.00
64675;BME280;51090;51.512;11.332;2023-02-12T06:41:07;101403.22;;;8.62;100.00
64675;BME280;51090;51.512;11.332;2023-02-12T06:43:33;101413.69;;;8.52;100.00
64675;BME280;51090;51.512;11.332;2023-02-12T06:46:03;101409.03;;;8.56;100.00
64675;BME280;51090;51.512;11.332;2023-02-12T06:48:30;101417.19;;;8.53;100.00
64675;BME280;51090;51.512;11.332;2023-02-12T06:53:38;101429.47;;;8.54;100.00
64675;BME280;51090;51.512;11.332;2023-02-12T06:56:06;101430.88;;;8.58;100.00
64675;BME280;51090;51.512;11.332;2023-02-12T06:58:36;101432.69;;;8.57;100.00
64675;BME280;51090;51.512;11.332;2023-02-12T07:01:12;101442.66;;;8.65;100.00
64675;BME280;51090;51.512;11.332;2023-02-12T07:03:47;101408.31;;;8.54;100.00
64675;BME280;51090;51.512;11.332;2023-02-12T07:06:13;101440.84;;;8.65;100.00
64675;BME280;51090;51.512;11.332;2023-02-12T07:08:39;101445.28;;;8.65;100.00
64675;BME280;51090;51.512;11.332;2023-02-12T07:11:05;101430.88;;;8.58;100.00
64675;BME280;51090;51.512;11.332;2023-02-12T07:13:32;101442.66;;;8.65;100.00
64675;BME280;51090;51.512;11.332;2023-02-12T07:16:03;101455.72;;;8.78;100.00
64675;BME280;51090;51.512;11.332;2023-02-12T07:18:30;101452.13;;;8.79;100.00
64675;BME280;51090;51.512;11.332;2023-02-12T07:20:55;101452.59;;;8.84;100.00
64675;BME280;51090;51.512;11.332;2023-02-12T07:23:21;101464.97;;;8.94;100.00
64675;BME280;51090;51.512;11.332;2023-02-12T07:25:57;101462.28;;;9.06;100.00
64675;BME280;51090;51.512;11.332;2023-02-12T07:28:24;101448.78;;;9.09;100.00
64675;BME280;51090;51.512;11.332;2023-02-12T07:30:50;101454.63;;;9.24;100.00
64675;BME280;51090;51.512;11.332;2023-02-12T07:33:17;101447.34;;;9.37;100.00
64675;BME280;51090;51.512;11.332;2023-02-12T07:35:43;101450.53;;;9.52;100.00
64675;BME280;51090;51.512;11.332;2023-02-12T07:38:09;101462.09;;;9.72;100.00
64675;BME280;51090;51.512;11.332;2023-02-12T07:40:35;101457.63;;;9.72;100.00
64675;BME280;51090;51.512;11.332;2023-02-12T07:43:00;101471.59;;;9.74;100.00
64675;BME280;51090;51.512;11.332;2023-02-12T07:45:26;101453.50;;;9.79;100.00
64675;BME280;51090;51.512;11.332;2023-02-12T07:47:52;101456.59;;;9.85;100.00
64675;BME280;51090;51.512;11.332;2023-02-12T07:50:17;101456.22;;;9.89;100.00
64675;BME280;51090;51.512;11.332;2023-02-12T07:52:43;101449.47;;;9.85;100.00
64675;BME280;51090;51.512;11.332;2023-02-12T07:55:09;101466.00;;;9.98;100.00
64675;BME280;51090;51.512;11.332;2023-02-12T07:57:35;101471.03;;;10.01;100.00
64675;BME280;51090;51.512;11.332;2023-02-12T08:00:03;101475.56;;;10.11;100.00
64675;BME280;51090;51.512;11.332;2023-02-12T08:02:29;101466.91;;;10.09;100.00
64675;BME280;51090;51.512;11.332;2023-02-12T08:04:58;101479.88;;;10.12;100.00
64675;BME280;51090;51.512;11.332;2023-02-12T08:07:24;101473.03;;;10.09;100.00
64675;BME280;51090;51.512;11.332;2023-02-12T08:09:50;101484.34;;;10.11;100.00
64675;BME280;51090;51.512;11.332;2023-02-12T08:12:16;101478.78;;;10.14;100.00
64675;BME280;51090;51.512;11.332;2023-02-12T08:14:43;101475.56;;;10.11;100.00
64675;BME280;51090;51.512;11.332;2023-02-12T08:17:09;101477.50;;;10.09;100.00
64675;BME280;51090;51.512;11.332;2023-02-12T08:19:36;101483.19;;;10.04;100.00
64675;BME280;51090;51.512;11.332;2023-02-12T08:22:02;101485.06;;;10.13;100.00
64675;BME280;51090;51.512;11.332;2023-02-12T08:24:28;101484.84;;;10.26;100.00
64675;BME280;51090;51.512;11.332;2023-02-12T08:26:55;101481.72;;;10.42;100.00
64675;BME280;51090;51.512;11.332;2023-02-12T08:29:28;101480.09;;;10.60;100.00
64675;BME280;51090;51.512;11.332;2023-02-12T08:31:57;101463.94;;;10.73;100.00
64675;BME280;51090;51.512;11.332;2023-02-12T08:34:33;101486.91;;;10.94;100.00
64675;BME280;51090;51.512;11.332;2023-02-12T08:36:59;101479.50;;;10.87;100.00
64675;BME280;51090;51.512;11.332;2023-02-12T08:39:28;101483.97;;;10.87;100.00
64675;BME280;51090;51.512;11.332;2023-02-12T08:41:55;101493.91;;;10.95;100.00
64675;BME280;51090;51.512;11.332;2023-02-12T08:44:21;101501.84;;;11.04;100.00
64675;BME280;51090;51.512;11.332;2023-02-12T08:46:50;101488.88;;;11.01;100.00
64675;BME280;51090;51.512;11.332;2023-02-12T08:49:23;101503.97;;;11.01;100.00
64675;BME280;51090;51.512;11.332;2023-02-12T08:51:53;101504.78;;;11.01;100.00
64675;BME280;51090;51.512;11.332;2023-02-12T08:54:22;101508.44;;;11.00;100.00
64675;BME280;51090;51.512;11.332;2023-02-12T08:56:49;101516.94;;;11.04;100.00
64675;BME280;51090;51.512;11.332;2023-02-12T08:59:16;101510.69;;;11.05;100.00
64675;BME280;51090;51.512;11.332;2023-02-12T09:01:42;101513.06;;;11.08;100.00
64675;BME280;51090;51.512;11.332;2023-02-12T09:04:21;101526.22;;;11.29;100.00
64675;BME280;51090;51.512;11.332;2023-02-12T09:06:48;101528.91;;;11.39;100.00
64675;BME280;51090;51.512;11.332;2023-02-12T09:09:14;101527.91;;;11.49;100.00
64675;BME280;51090;51.512;11.332;2023-02-12T09:11:40;101517.97;;;11.42;100.00
64675;BME280;51090;51.512;11.332;2023-02-12T09:14:12;101535.72;;;11.61;100.00
64675;BME280;51090;51.512;11.332;2023-02-12T09:16:38;101541.91;;;11.61;100.00
64675;BME280;51090;51.512;11.332;2023-02-12T09:19:07;101544.81;;;11.68;100.00
64675;BME280;51090;51.512;11.332;2023-02-12T09:21:35;101540.91;;;11.72;100.00
64675;BME280;51090;51.512;11.332;2023-02-12T09:24:01;101536.03;;;11.77;100.00
64675;BME280;51090;51.512;11.332;2023-02-12T09:26:28;101540.88;;;11.82;100.00
64675;BME280;51090;51.512;11.332;2023-02-12T09:28:54;101546.66;;;11.87;100.00
64675;BME280;51090;51.512;11.332;2023-02-12T09:31:26;101536.97;;;11.86;100.00
64675;BME280;51090;51.512;11.332;2023-02-12T09:33:54;101536.72;;;11.98;100.00
64675;BME280;51090;51.512;11.332;2023-02-12T09:36:22;101548.31;;;12.07;100.00
64675;BME280;51090;51.512;11.332;2023-02-12T09:38:48;101551.78;;;12.17;100.00
64675;BME280;51090;51.512;11.332;2023-02-12T09:44:09;101567.44;;;12.30;100.00
64675;BME280;51090;51.512;11.332;2023-02-12T09:46:47;101558.22;;;12.25;100.00
64675;BME280;51090;51.512;11.332;2023-02-12T09:52:25;101574.88;;;12.27;100.00
64675;BME280;51090;51.512;11.332;2023-02-12T09:54:52;101571.91;;;12.30;100.00
64675;BME280;51090;51.512;11.332;2023-02-12T09:57:36;101573.00;;;12.47;100.00
64675;BME280;51090;51.512;11.332;2023-02-12T10:00:07;101556.22;;;12.46;100.00
64675;BME280;51090;51.512;11.332;2023-02-12T10:02:39;101567.97;;;12.44;100.00
64675;BME280;51090;51.512;11.332;2023-02-12T10:05:15;101565.56;;;12.50;100.00
64675;BME280;51090;51.512;11.332;2023-02-12T10:13:07;101566.03;;;12.73;100.00
64675;BME280;51090;51.512;11.332;2023-02-12T10:18:41;101568.97;;;12.80;100.00
64675;BME280;51090;51.512;11.332;2023-02-12T10:21:47;101582.28;;;12.80;100.00
64675;BME280;51090;51.512;11.332;2023-02-12T10:27:08;101572.81;;;12.95;100.00
64675;BME280;51090;51.512;11.332;2023-02-12T10:29:39;101589.56;;;13.05;100.00
64675;BME280;51090;51.512;11.332;2023-02-12T10:32:25;101583.81;;;13.10;100.00
64675;BME280;51090;51.512;11.332;2023-02-12T10:34:53;101579.31;;;13.11;100.00
64675;BME280;51090;51.512;11.332;2023-02-12T10:42:53;101571.78;;;13.34;100.00
64675;BME280;51090;51.512;11.332;2023-02-12T10:45:33;101580.00;;;13.58;100.00
64675;BME280;51090;51.512;11.332;2023-02-12T10:48:16;101575.97;;;13.72;100.00
64675;BME280;51090;51.512;11.332;2023-02-12T10:53:41;101576.84;;;13.99;100.00
64675;BME280;51090;51.512;11.332;2023-02-12T10:56:17;101571.88;;;14.04;100.00
64675;BME280;51090;51.512;11.332;2023-02-12T10:58:51;101567.56;;;14.03;100.00
64675;BME280;51090;51.512;11.332;2023-02-12T11:01:32;101568.47;;;13.93;100.00
64675;BME280;51090;51.512;11.332;2023-02-12T11:04:18;101561.25;;;13.86;100.00
64675;BME280;51090;51.512;11.332;2023-02-12T11:09:41;101542.06;;;13.64;100.00
64675;BME280;51090;51.512;11.332;2023-02-12T11:12:35;101554.00;;;13.78;100.00
64675;BME280;51090;51.512;11.332;2023-02-12T11:15:18;101545.75;;;13.89;100.00
64675;BME280;51090;51.512;11.332;2023-02-12T11:17:56;101547.25;;;14.10;100.00
64675;BME280;51090;51.512;11.332;2023-02-12T11:20:39;101536.09;;;14.14;100.00
64675;BME280;51090;51.512;11.332;2023-02-12T11:23:21;101536.31;;;14.21;100.00
64675;BME280;51090;51.512;11.332;2023-02-12T11:26:01;101536.00;;;14.24;100.00
64675;BME280;51090;51.512;11.332;2023-02-12T11:28:29;101509.66;;;14.21;100.00
64675;BME280;51090;51.512;11.332;2023-02-12T11:31:31;101521.56;;;14.35;100.00
64675;BME280;51090;51.512;11.332;2023-02-12T11:36:45;101519.00;;;14.25;100.00
64675;BME280;51090;51.512;11.332;2023-02-12T11:39:27;101515.66;;;14.23;100.00
64675;BME280;51090;51.512;11.332;2023-02-12T11:42:17;101517.19;;;14.26;100.00
64675;BME280;51090;51.512;11.332;2023-02-12T11:44:56;101513.19;;;14.30;100.00
64675;BME280;51090;51.512;11.332;2023-02-12T11:47:34;101516.75;;;14.38;100.00
64675;BME280;51090;51.512;11.332;2023-02-12T11:50:32;101518.50;;;14.56;100.00
64675;BME280;51090;51.512;11.332;2023-02-12T11:53:05;101526.06;;;14.69;100.00
64675;BME280;51090;51.512;11.332;2023-02-12T11:55:37;101515.94;;;14.72;100.00
64675;BME280;51090;51.512;11.332;2023-02-12T11:58:25;101512.09;;;14.75;100.00
64675;BME280;51090;51.512;11.332;2023-02-12T12:03:48;101518.75;;;14.71;100.00
64675;BME280;51090;51.512;11.332;2023-02-12T12:06:53;101517.28;;;14.85;100.00
64675;BME280;51090;51.512;11.332;2023-02-12T12:09:41;101518.50;;;14.98;100.00
64675;BME280;51090;51.512;11.332;2023-02-12T12:12:24;101506.19;;;15.14;100.00
64675;BME280;51090;51.512;11.332;2023-02-12T12:15:37;101510.22;;;15.26;100.00
64675;BME280;51090;51.512;11.332;2023-02-12T12:18:33;101519.22;;;15.33;100.00
64675;BME280;51090;51.512;11.332;2023-02-12T12:24:38;101509.06;;;15.45;100.00
64675;BME280;51090;51.512;11.332;2023-02-12T12:27:26;101504.22;;;15.49;98.81
64675;BME280;51090;51.512;11.332;2023-02-12T12:33:00;101511.25;;;15.91;100.00
64675;BME280;51090;51.512;11.332;2023-02-12T12:36:16;101495.03;;;15.92;99.15
64675;BME280;51090;51.512;11.332;2023-02-12T12:47:59;101510.06;;;16.01;96.47
64675;BME280;51090;51.512;11.332;2023-02-12T12:51:07;101503.56;;;15.96;93.04
64675;BME280;51090;51.512;11.332;2023-02-12T12:56:32;101497.88;;;15.82;96.56
64675;BME280;51090;51.512;11.332;2023-02-12T13:02:11;101504.25;;;15.73;96.34
64675;BME280;51090;51.512;11.332;2023-02-12T13:10:56;101495.84;;;15.35;98.72
64675;BME280;51090;51.512;11.332;2023-02-12T13:13:37;101478.44;;;15.15;98.26
64675;BME280;51090;51.512;11.332;2023-02-12T13:19:18;101489.47;;;15.03;100.00
64675;BME280;51090;51.512;11.332;2023-02-12T13:22:18;101486.44;;;14.98;100.00
64675;BME280;51090;51.512;11.332;2023-02-12T13:25:03;101468.56;;;14.91;100.00
64675;BME280;51090;51.512;11.332;2023-02-12T13:27:36;101470.22;;;14.92;100.00
64675;BME280;51090;51.512;11.332;2023-02-12T13:33:21;101490.16;;;15.14;99.72
64675;BME280;51090;51.512;11.332;2023-02-12T13:35:52;101489.97;;;15.07;100.00
64675;BME280;51090;51.512;11.332;2023-02-12T13:38:33;101484.75;;;14.97;100.00
64675;BME280;51090;51.512;11.332;2023-02-12T13:41:06;101494.63;;;14.97;100.00
64675;BME280;51090;51.512;11.332;2023-02-12T13:44:20;101486.59;;;14.97;100.00
64675;BME280;51090;51.512;11.332;2023-02-12T13:53:06;101488.44;;;14.96;100.00
64675;BME280;51090;51.512;11.332;2023-02-12T13:56:04;101476.56;;;14.83;100.00
64675;BME280;51090;51.512;11.332;2023-02-12T14:01:01;101467.88;;;14.80;100.00
64675;BME280;51090;51.512;11.332;2023-02-12T14:03:30;101473.84;;;14.74;100.00
64675;BME280;51090;51.512;11.332;2023-02-12T14:06:18;101473.72;;;14.84;100.00
64675;BME280;51090;51.512;11.332;2023-02-12T14:09:09;101461.53;;;14.81;100.00
64675;BME280;51090;51.512;11.332;2023-02-12T14:11:48;101467.53;;;14.84;100.00
64675;BME280;51090;51.512;11.332;2023-02-12T14:27:57;101472.44;;;15.05;100.00
64675;BME280;51090;51.512;11.332;2023-02-12T14:30:39;101478.94;;;15.02;99.24
64675;BME280;51090;51.512;11.332;2023-02-12T14:33:22;101472.41;;;14.88;99.38
64675;BME280;51090;51.512;11.332;2023-02-12T14:41:49;101467.81;;;14.64;100.00
64675;BME280;51090;51.512;11.332;2023-02-12T14:49:43;101474.16;;;14.29;100.00
64675;BME280;51090;51.512;11.332;2023-02-12T14:54:45;101473.91;;;14.14;100.00
64675;BME280;51090;51.512;11.332;2023-02-12T15:02:42;101470.00;;;14.00;100.00
64675;BME280;51090;51.512;11.332;2023-02-12T15:05:20;101463.53;;;14.03;100.00
64675;BME280;51090;51.512;11.332;2023-02-12T15:08:02;101469.50;;;14.05;100.00
64675;BME280;51090;51.512;11.332;2023-02-12T15:10:54;101457.81;;;13.98;100.00
64675;BME280;51090;51.512;11.332;2023-02-12T15:16:43;101451.75;;;13.87;100.00
64675;BME280;51090;51.512;11.332;2023-02-12T15:19:30;101466.81;;;13.97;100.00
64675;BME280;51090;51.512;11.332;2023-02-12T15:21:59;101477.28;;;13.90;100.00
64675;BME280;51090;51.512;11.332;2023-02-12T15:24:26;101475.75;;;13.87;100.00
64675;BME280;51090;51.512;11.332;2023-02-12T15:26:56;101475.06;;;13.85;100.00
64675;BME280;51090;51.512;11.332;2023-02-12T15:29:36;101471.03;;;13.81;100.00
64675;BME280;51090;51.512;11.332;2023-02-12T15:32:07;101484.22;;;13.83;100.00
64675;BME280;51090;51.512;11.332;2023-02-12T15:34:36;101483.41;;;13.82;100.00